Time;durP1;ratioP1;P1;durP2;ratioP2;P2;SDS_P1;SDS_P2;PMS_P1;PMS_P2;Temp;Humidity;BMP_temperature;BMP_pressure;BME280_temperature;BME280_humidity;BME280_pressure;Samples;Min_cycle;Max_cycle;Signal;HPM_P1;HPM_P2
2022/02/03 00:00:39;;;;;;;14.63;2.80;;;;;;;11.92;71.29;100051.19;5066173;28;20037;-77
2022/02/03 00:03:17;;;;;;;13.15;2.78;;;;;;;11.97;71.14;100057.34;5029899;28;20477;-77
2022/02/03 00:05:54;;;;;;;16.33;2.42;;;;;;;11.98;71.15;100045.00;5029804;28;20409;-77
2022/02/03 00:08:34;;;;;;;12.63;2.20;;;;;;;12.00;71.11;100050.31;5031397;28;20045;-76
2022/02/03 00:17:00;;;;;;;13.13;3.38;;;;;;;12.06;70.54;100048.53;5040830;28;20041;-76
2022/02/03 00:22:35;;;;;;;17.00;2.38;;;;;;;12.09;69.94;100042.34;5045327;28;20396;-76
2022/02/03 00:25:10;;;;;;;11.18;2.50;;;;;;;12.10;69.62;100036.16;5048574;28;20041;-77
2022/02/03 00:27:55;;;;;;;14.48;2.60;;;;;;;12.12;69.71;100032.66;5032450;28;20409;-76
2022/02/03 00:30:32;;;;;;;15.77;2.95;;;;;;;12.12;69.76;100026.47;5058325;28;20071;-76
2022/02/03 00:50:02;;;;;;;5.82;1.45;;;;;;;12.15;69.10;100013.22;5058729;28;20150;-76
2022/02/03 00:52:34;;;;;;;8.98;1.58;;;;;;;12.17;68.83;99998.22;5030941;28;20113;-76
2022/02/03 00:55:02;;;;;;;9.60;1.70;;;;;;;12.16;68.14;99997.34;5047312;28;20041;-76
2022/02/03 00:57:34;;;;;;;10.52;2.20;;;;;;;12.22;67.57;99996.44;5049967;28;20052;-76
2022/02/03 01:00:08;;;;;;;9.95;1.67;;;;;;;12.31;67.56;99992.00;5048324;28;20080;-76
2022/02/03 01:02:43;;;;;;;11.23;1.83;;;;;;;12.36;67.17;99976.97;5046269;28;20120;-76
2022/02/03 01:05:13;;;;;;;9.85;1.85;;;;;;;12.41;67.51;99970.78;5051370;28;20045;-76
2022/02/03 01:07:45;;;;;;;17.90;2.83;;;;;;;12.42;67.51;99957.53;5029356;28;20061;-76
2022/02/03 01:10:17;;;;;;;12.48;2.50;;;;;;;12.42;67.87;99954.00;5061384;28;20049;-77
2022/02/03 01:12:55;;;;;;;8.43;2.00;;;;;;;12.41;67.93;99944.31;5030205;28;20045;-76
2022/02/03 01:15:30;;;;;;;15.80;2.00;;;;;;;12.41;68.31;99942.53;5028669;28;20133;-76
2022/02/03 01:18:20;;;;;;;15.93;1.85;;;;;;;12.40;68.20;99934.63;5043311;28;20132;-76
2022/02/03 01:21:18;;;;;;;12.48;2.25;;;;;;;12.38;68.25;99932.00;5042184;28;20125;-75
2022/02/03 01:34:56;;;;;;;6.68;1.35;;;;;;;12.48;62.92;99927.50;5064734;28;20055;-76
2022/02/03 01:37:49;;;;;;;7.63;1.38;;;;;;;12.48;62.79;99925.75;5047896;28;20048;-75
2022/02/03 01:43:21;;;;;;;10.90;1.83;;;;;;;12.49;62.98;99931.91;5030301;28;20436;-75
2022/02/03 01:45:53;;;;;;;8.20;0.98;;;;;;;12.47;63.01;99921.34;5028147;28;20048;-75
2022/02/03 01:48:36;;;;;;;7.88;1.20;;;;;;;12.48;63.04;99923.09;5024869;28;20048;-76
2022/02/03 01:53:53;;;;;;;9.27;1.40;;;;;;;12.46;63.25;99932.84;5049223;28;20040;-75
2022/02/03 01:56:25;;;;;;;8.70;1.83;;;;;;;12.44;63.34;99945.19;5048049;28;20045;-75
2022/02/03 01:58:56;;;;;;;5.28;1.27;;;;;;;12.46;63.60;99931.97;5032364;28;20038;-75
2022/02/03 02:01:26;;;;;;;11.77;1.98;;;;;;;12.46;63.54;99937.25;5035836;28;20059;-75
2022/02/03 02:04:03;;;;;;;10.13;1.15;;;;;;;12.45;63.56;99930.19;5052729;28;20041;-75
2022/02/03 02:06:47;;;;;;;5.00;1.30;;;;;;;12.41;63.86;99921.38;5049083;28;20049;-75
2022/02/03 02:09:29;;;;;;;8.52;2.05;;;;;;;12.36;63.80;99915.22;5048936;28;20103;-75
2022/02/03 02:12:22;;;;;;;3.55;1.08;;;;;;;12.35;64.03;99910.81;5044821;28;20606;-75
2022/02/03 02:15:23;;;;;;;11.27;1.70;;;;;;;12.36;63.80;99905.53;5041010;28;20126;-75
2022/02/03 02:18:20;;;;;;;5.22;1.30;;;;;;;12.36;64.21;99902.88;5042981;28;20046;-75
2022/02/03 02:37:55;;;;;;;10.95;1.67;;;;;;;12.50;63.54;99902.81;5060979;28;20033;-75
2022/02/03 02:43:31;;;;;;;10.70;2.22;;;;;;;12.50;62.64;99901.91;4996338;28;20034;-74
2022/02/03 02:46:03;;;;;;;10.23;1.70;;;;;;;12.51;62.63;99901.03;5047092;28;20056;-75
2022/02/03 02:49:13;;;;;;;4.47;1.00;;;;;;;12.48;62.42;99914.28;5030793;28;20045;-75
2022/02/03 02:51:49;;;;;;;5.80;1.05;;;;;;;12.47;62.40;99929.28;5031761;28;20041;-75
2022/02/03 02:54:38;;;;;;;5.88;0.90;;;;;;;12.48;62.04;99928.38;5031110;28;20037;-75
2022/02/03 02:57:35;;;;;;;9.30;0.95;;;;;;;12.47;62.16;99928.44;5031391;28;20095;-75
2022/02/03 03:03:20;;;;;;;9.07;1.40;;;;;;;12.45;62.21;99930.19;5077269;28;20041;-74
2022/02/03 03:31:13;;;;;;;;;;;;;;;12.50;61.17;99933.69;5034095;28;20485;-75
2022/02/03 03:33:53;;;;;;;8.93;1.50;;;;;;;12.50;61.45;99931.91;5030423;28;19932;-75
2022/02/03 03:36:22;;;;;;;7.93;1.00;;;;;;;12.48;61.44;99924.88;5038738;28;20048;-75
2022/02/03 03:38:51;;;;;;;11.02;1.60;;;;;;;12.49;61.67;99927.50;5047605;28;20607;-74
2022/02/03 03:41:21;;;;;;;12.35;1.50;;;;;;;12.48;61.79;99923.09;5048851;28;20052;-75
2022/02/03 03:44:03;;;;;;;8.43;1.50;;;;;;;12.51;61.42;99915.16;5060458;28;20415;-75
2022/02/03 03:46:34;;;;;;;6.57;1.45;;;;;;;12.51;61.30;99920.44;5078243;28;20115;-75
2022/02/03 03:49:27;;;;;;;10.10;1.70;;;;;;;12.51;61.67;99920.44;5040519;28;20057;-75
2022/02/03 03:52:04;;;;;;;9.02;1.30;;;;;;;12.48;61.80;99920.44;5062186;28;20096;-74
2022/02/03 03:54:38;;;;;;;5.50;1.40;;;;;;;12.45;62.20;99919.59;5049895;28;20079;-75
2022/02/03 03:57:16;;;;;;;11.05;1.35;;;;;;;12.41;62.15;99912.56;5041076;28;20041;-75
2022/02/03 04:35:21;;;;;;;11.52;1.38;;;;;;;12.20;62.19;99906.50;5007695;28;20065;-75
2022/02/03 04:38:02;;;;;;;8.10;0.95;;;;;;;12.13;62.43;99903.91;5032357;28;20147;-75
2022/02/03 04:40:59;;;;;;;7.60;1.33;;;;;;;12.13;62.26;99901.25;5049661;28;20039;-74
2022/02/03 04:44:14;;;;;;;6.57;1.23;;;;;;;12.13;62.27;99907.44;5042262;28;20444;-75
2022/02/03 04:53:52;;;;;;;7.15;1.40;;;;;;;12.19;61.93;99906.50;5046056;28;20045;-74
2022/02/03 04:56:52;;;;;;;13.52;2.00;;;;;;;12.19;62.39;99901.22;5017543;28;20037;-74
2022/02/03 05:02:48;;;;;;;11.82;1.30;;;;;;;12.19;62.66;99917.09;5026281;28;20057;-75
2022/02/03 05:05:40;;;;;;;6.40;2.05;;;;;;;12.16;62.73;99930.31;5008373;28;20096;-74
2022/02/03 05:08:37;;;;;;;3.92;0.82;;;;;;;11.98;64.28;99931.28;5036313;28;20045;-74
2022/02/03 05:11:29;;;;;;;10.07;1.23;;;;;;;11.87;65.29;99933.09;5049496;28;20051;-74
2022/02/03 05:20:23;;;;;;;10.25;1.80;;;;;;;11.65;66.82;99923.41;5008241;28;20120;-74
2022/02/03 05:26:21;;;;;;;13.50;2.72;;;;;;;11.53;67.38;99932.25;5041098;28;20492;-74
2022/02/03 05:32:32;;;;;;;23.45;16.13;;;;;;;11.40;67.61;99935.81;5052330;28;20045;-74
2022/02/03 05:44:13;;;;;;;14.77;6.07;;;;;;;10.83;70.87;99923.50;5044177;28;20061;-75
2022/02/03 05:46:59;;;;;;;14.27;8.38;;;;;;;10.74;71.52;99919.06;5039271;28;20544;-74
2022/02/03 05:52:40;;;;;;;20.80;9.60;;;;;;;10.80;72.61;99897.97;5016496;28;20045;-75
2022/02/03 06:03:51;;;;;;;7.78;3.05;;;;;;;10.49;77.20;99902.34;5028117;28;20548;-80
2022/02/03 06:09:22;;;;;;;17.75;6.63;;;;;;;10.51;79.59;99897.03;5047906;28;20094;-82
2022/02/03 06:12:15;;;;;;;14.75;6.07;;;;;;;10.56;80.27;99888.28;5082857;28;20463;-82
2022/02/03 06:14:56;;;;;;;11.48;2.10;;;;;;;10.64;80.73;99909.38;5069170;28;20476;-81
2022/02/03 06:17:33;;;;;;;8.23;1.38;;;;;;;10.69;81.26;99912.91;5052901;28;20500;-80
2022/02/03 06:22:53;;;;;;;19.98;10.43;;;;;;;10.89;80.96;99921.75;5039066;28;20048;-80
2022/02/03 06:28:06;;;;;;;36.03;25.20;;;;;;;11.04;80.11;99937.56;5060785;28;20080;-78
2022/02/03 06:30:34;;;;;;;22.58;13.63;;;;;;;11.10;80.14;99941.97;5046457;28;20049;-79
2022/02/03 06:33:02;;;;;;;18.50;9.07;;;;;;;11.19;79.95;99934.94;5074663;28;20048;-79
2022/02/03 06:35:30;;;;;;;20.50;11.07;;;;;;;11.28;79.70;99934.06;5027461;28;20048;-80
2022/02/03 06:37:59;;;;;;;17.92;6.88;;;;;;;11.33;79.62;99923.47;5028372;28;20049;-78
2022/02/03 06:40:26;;;;;;;10.10;2.72;;;;;;;11.34;79.60;99923.47;5061167;28;20405;-79
2022/02/03 06:42:57;;;;;;;9.73;1.90;;;;;;;11.35;79.53;99935.81;5048396;28;20644;-79
2022/02/03 06:45:35;;;;;;;9.48;2.50;;;;;;;11.36;79.12;99932.25;5027172;28;20037;-78
2022/02/03 06:48:07;;;;;;;17.20;4.97;;;;;;;11.39;78.88;99929.63;5062676;28;20036;-79
2022/02/03 06:50:40;;;;;;;17.00;6.72;;;;;;;11.43;78.98;99926.09;5067705;28;20051;-77
2022/02/03 06:53:13;;;;;;;15.82;6.82;;;;;;;11.49;79.03;99933.13;5044032;28;20519;-77
2022/02/03 06:55:47;;;;;;;18.40;5.70;;;;;;;11.52;79.22;99944.59;5059929;28;20048;-78
2022/02/03 06:58:21;;;;;;;14.10;4.70;;;;;;;11.56;79.14;99937.53;5025700;28;20038;-77
2022/02/03 07:00:59;;;;;;;15.45;4.95;;;;;;;11.58;79.12;99951.63;5039581;28;20095;-76
2022/02/03 07:03:30;;;;;;;11.20;3.50;;;;;;;11.56;78.71;99948.09;5047211;28;20061;-77
2022/02/03 07:05:58;;;;;;;11.98;4.03;;;;;;;11.59;78.70;99945.47;5026834;28;20055;-78
2022/02/03 07:08:29;;;;;;;10.55;3.55;;;;;;;11.59;78.41;99943.69;5011202;28;20039;-77
2022/02/03 07:10:57;;;;;;;10.60;4.03;;;;;;;11.59;78.68;99950.75;5047721;28;20052;-76
2022/02/03 07:13:24;;;;;;;10.85;3.10;;;;;;;11.58;78.73;99949.88;5046798;28;20047;-77
2022/02/03 07:15:52;;;;;;;13.50;3.50;;;;;;;11.59;78.86;99946.34;5039384;28;20057;-77
2022/02/03 07:18:20;;;;;;;11.38;2.72;;;;;;;11.66;78.81;99947.22;5058603;28;20100;-77
2022/02/03 07:20:48;;;;;;;7.93;1.95;;;;;;;11.91;79.31;99954.22;5045045;28;20049;-77
2022/02/03 07:23:15;;;;;;;8.70;2.63;;;;;;;12.39;79.59;99939.06;5028124;28;20045;-77
2022/02/03 07:25:45;;;;;;;10.25;2.50;;;;;;;12.97;79.52;99939.56;5035060;28;20068;-76
2022/02/03 07:28:13;;;;;;;8.30;1.85;;;;;;;13.47;79.88;99935.63;5035879;28;20096;-76
2022/02/03 07:30:41;;;;;;;7.80;1.40;;;;;;;13.92;79.65;99932.47;5037125;28;20040;-76
2022/02/03 07:33:09;;;;;;;3.97;0.90;;;;;;;14.10;78.76;99922.56;5037724;28;20065;-77
2022/02/03 07:35:37;;;;;;;5.13;1.92;;;;;;;14.28;78.29;99914.38;5048044;28;20124;-76
2022/02/03 07:38:07;;;;;;;9.50;2.38;;;;;;;14.34;78.60;99915.16;5051105;28;20041;-76
2022/02/03 07:40:36;;;;;;;12.80;4.32;;;;;;;14.52;78.95;99911.41;5050740;28;20618;-76
2022/02/03 07:43:09;;;;;;;20.40;10.75;;;;;;;14.72;78.09;99916.41;5057960;28;20037;-75
2022/02/03 07:45:37;;;;;;;24.88;15.65;;;;;;;14.87;78.59;99925.94;5064279;28;20048;-76
2022/02/03 07:48:05;;;;;;;17.88;10.38;;;;;;;15.00;78.09;99923.06;5059722;28;20099;-77
2022/02/03 07:50:33;;;;;;;11.38;4.65;;;;;;;14.91;78.19;99933.84;5065011;28;20132;-76
2022/02/03 07:53:02;;;;;;;7.38;2.70;;;;;;;14.60;77.66;99938.72;5063760;28;20090;-76
2022/02/03 07:55:30;;;;;;;11.13;2.03;;;;;;;14.38;77.47;99941.69;5034469;28;20400;-76
2022/02/03 07:57:58;;;;;;;10.07;2.85;;;;;;;14.15;77.54;99944.63;5065066;28;20047;-76
2022/02/03 08:00:27;;;;;;;23.20;11.60;;;;;;;13.93;76.56;99947.50;5049663;28;20045;-76
2022/02/03 08:02:54;;;;;;;27.23;17.13;;;;;;;13.72;76.41;99942.44;5049323;28;20508;-76
2022/02/03 08:05:23;;;;;;;32.10;19.17;;;;;;;13.61;76.22;99949.63;5048659;28;20095;-76
2022/02/03 08:07:55;;;;;;;16.80;9.38;;;;;;;13.48;75.48;99953.28;5034224;28;20045;-76
2022/02/03 08:10:36;;;;;;;20.67;10.85;;;;;;;13.38;75.09;99964.88;5067744;28;20044;-78
2022/02/03 08:13:06;;;;;;;21.92;12.25;;;;;;;13.33;75.33;99964.91;5040773;28;20052;-77
2022/02/03 08:15:39;;;;;;;17.33;7.63;;;;;;;13.30;74.53;99964.94;5062177;28;20103;-77
2022/02/03 08:18:11;;;;;;;16.83;8.43;;;;;;;13.29;74.58;99965.84;5031140;28;20497;-77
2022/02/03 08:20:47;;;;;;;23.08;10.65;;;;;;;13.33;74.50;99978.16;5062688;28;20092;-77
2022/02/03 08:23:39;;;;;;;15.38;6.68;;;;;;;13.37;74.16;99977.25;5062415;28;20592;-77
2022/02/03 08:26:12;;;;;;;9.75;4.38;;;;;;;13.59;73.45;99987.69;5032026;28;20034;-77
2022/02/03 08:31:26;;;;;;;10.73;6.15;;;;;;;14.98;73.56;99970.03;5034152;28;20045;-77
2022/02/03 08:33:55;;;;;;;17.38;7.60;;;;;;;15.46;74.06;99964.84;5033896;28;20068;-77
2022/02/03 08:36:25;;;;;;;8.45;1.70;;;;;;;16.06;74.07;99962.00;5049328;28;20448;-77
2022/02/03 08:38:56;;;;;;;2.35;1.20;;;;;;;16.43;71.59;99952.34;5046344;28;20061;-78
2022/02/03 08:41:25;;;;;;;7.28;1.00;;;;;;;16.64;68.21;99959.91;5050859;28;20037;-77
2022/02/03 08:43:53;;;;;;;2.45;0.70;;;;;;;16.85;67.17;99950.56;5049360;28;20511;-78
2022/02/03 08:46:24;;;;;;;5.80;0.85;;;;;;;16.95;64.34;99957.41;5049256;28;20045;-77
2022/02/03 08:48:54;;;;;;;2.25;0.50;;;;;;;16.95;63.45;99951.22;5048479;28;20103;-78
2022/02/03 08:51:23;;;;;;;5.38;0.82;;;;;;;16.90;61.14;99946.00;5031031;28;20049;-76
2022/02/03 08:53:55;;;;;;;3.25;0.90;;;;;;;16.90;60.67;99953.13;5038127;28;20434;-75
2022/02/03 08:56:33;;;;;;;6.68;1.40;;;;;;;16.90;60.18;99956.66;5045077;28;20053;-77
2022/02/03 08:59:30;;;;;;;2.13;0.70;;;;;;;16.76;58.06;99941.88;5045154;28;20044;-78
2022/02/03 10:00:33;;;;;;;5.88;0.88;;;;;;;18.76;49.25;99911.56;5031050;28;20040;-76
2022/02/03 10:03:04;;;;;;;9.68;3.25;;;;;;;18.99;49.47;99917.06;5046693;28;20045;-76
2022/02/03 10:05:36;;;;;;;6.45;2.80;;;;;;;19.46;49.29;99921.75;5014274;28;20051;-76
2022/02/03 10:08:05;;;;;;;6.65;1.95;;;;;;;19.90;48.88;99911.25;5043488;28;20044;-78
2022/02/03 10:10:35;;;;;;;4.38;1.92;;;;;;;20.21;48.69;99913.69;5045571;28;20087;-77
2022/02/03 10:13:17;;;;;;;5.93;1.80;;;;;;;20.46;47.64;99913.66;5048367;28;20702;-77
2022/02/03 10:15:45;;;;;;;10.45;1.90;;;;;;;20.59;47.49;99917.63;5037924;28;20064;-77
2022/02/03 10:18:27;;;;;;;11.85;1.80;;;;;;;20.69;47.00;99914.50;5029556;28;20034;-76
2022/02/03 10:20:56;;;;;;;7.15;1.90;;;;;;;20.81;47.21;99918.50;5041723;28;20045;-77
2022/02/03 10:23:25;;;;;;;8.07;2.17;;;;;;;20.53;45.55;99907.13;5047938;28;20114;-78
2022/02/03 10:26:09;;;;;;;10.65;3.28;;;;;;;20.33;45.96;99921.31;5047392;28;20544;-77
2022/02/03 10:28:37;;;;;;;10.88;5.03;;;;;;;20.15;45.03;99908.56;5028877;28;20549;-77
2022/02/03 10:31:10;;;;;;;10.40;3.85;;;;;;;19.69;43.49;99907.53;5029033;28;20052;-77
2022/02/03 10:33:40;;;;;;;15.27;7.38;;;;;;;19.19;43.83;99908.38;5032066;28;20038;-76
2022/02/03 10:36:18;;;;;;;28.73;19.88;;;;;;;18.75;44.31;99915.16;5047455;28;20131;-77
2022/02/03 10:39:18;;;;;;;10.80;4.38;;;;;;;18.39;44.72;99911.78;5047269;28;20048;-76
2022/02/03 10:42:11;;;;;;;17.63;9.10;;;;;;;17.96;45.30;99915.72;5030735;28;20496;-76
2022/02/03 10:45:03;;;;;;;25.05;16.48;;;;;;;17.62;46.21;99920.22;5045334;28;20056;-76
2022/02/03 11:04:36;;;;;;;9.05;4.03;;;;;;;16.41;49.13;99919.53;5032119;28;20050;-76
2022/02/03 11:07:12;;;;;;;10.25;3.05;;;;;;;16.40;49.51;99928.47;5046126;28;20049;-75
2022/02/03 11:12:29;;;;;;;11.98;4.75;;;;;;;16.27;50.47;99918.97;5049424;28;20041;-75
2022/02/03 11:14:59;;;;;;;8.98;4.40;;;;;;;16.20;51.11;99917.34;5039937;28;20131;-75
2022/02/03 11:17:29;;;;;;;18.00;6.43;;;;;;;16.19;51.39;99920.91;5057348;28;20132;-75
2022/02/03 11:19:59;;;;;;;16.33;7.50;;;;;;;16.15;51.68;99917.41;5044756;28;20076;-75
2022/02/03 11:22:32;;;;;;;7.78;3.10;;;;;;;16.09;52.09;99919.31;5062753;28;20445;-75
2022/02/03 11:25:16;;;;;;;14.05;2.33;;;;;;;16.08;52.32;99923.78;5034780;28;20033;-75
2022/02/03 11:28:08;;;;;;;;;;;;;;;16.11;52.71;99921.06;5032261;28;20117;-74
2022/02/03 11:31:07;;;;;;;6.95;1.20;;;;;;;16.18;52.78;99928.03;5046092;28;20456;-75
2022/02/03 11:37:08;;;;;;;14.30;3.97;;;;;;;16.37;52.85;99925.84;5010539;28;20413;-76
2022/02/03 11:51:08;;;;;;;7.57;1.77;;;;;;;16.22;54.44;99923.50;5040946;28;20048;-74
2022/02/03 12:05:56;;;;;;;12.18;2.58;;;;;;;16.01;56.14;99940.81;5026721;28;20049;-75
2022/02/03 12:17:39;;;;;;;8.32;2.08;;;;;;;15.97;58.19;99939.09;5019385;28;20712;-76
2022/02/03 12:20:17;;;;;;;13.48;2.28;;;;;;;15.72;59.32;99940.47;5040155;28;20049;-75
2022/02/03 12:25:56;;;;;;;9.15;1.35;;;;;;;15.72;60.37;99943.13;5006070;28;20055;-75
2022/02/03 12:28:47;;;;;;;8.77;1.90;;;;;;;15.82;60.66;99934.94;5020707;28;20129;-75
2022/02/03 12:37:10;;;;;;;11.70;4.05;;;;;;;15.83;61.61;99939.34;5063919;28;20041;-75
2022/02/03 12:42:46;;;;;;;13.52;6.60;;;;;;;15.76;61.25;99950.13;5040946;28;20128;-75
2022/02/03 12:45:23;;;;;;;14.35;8.27;;;;;;;15.75;62.42;99964.38;5043134;28;20033;-75
2022/02/03 12:47:55;;;;;;;19.42;10.80;;;;;;;15.73;62.05;99969.72;5056509;28;20516;-76
2022/02/03 12:50:26;;;;;;;14.27;6.65;;;;;;;15.66;62.41;99976.06;5014471;28;20409;-75
2022/02/03 12:52:54;;;;;;;12.60;5.03;;;;;;;15.56;63.09;99970.94;5021369;28;20052;-75
2022/02/03 12:55:31;;;;;;;14.95;5.25;;;;;;;15.41;63.37;99972.03;5039118;28;20068;-76
2022/02/03 12:58:02;;;;;;;6.63;1.25;;;;;;;15.25;63.55;99987.34;5020686;28;20521;-76
2022/02/03 13:00:41;;;;;;;8.93;2.00;;;;;;;15.03;63.67;99970.00;5032290;28;20057;-76
2022/02/03 13:03:12;;;;;;;11.82;4.10;;;;;;;14.86;64.15;99978.22;5024243;28;20116;-76
2022/02/03 13:05:43;;;;;;;14.73;4.43;;;;;;;14.45;66.56;99976.09;5036332;28;20051;-75
2022/02/03 14:18:49;;;;;;;14.18;7.07;;;;;;;12.01;75.91;100076.78;5046851;28;20041;-79
2022/02/03 14:21:20;;;;;;;10.65;5.18;;;;;;;12.03;76.20;100074.09;5049470;28;20041;-76
2022/02/03 14:26:57;;;;;;;18.13;10.32;;;;;;;12.01;76.87;100081.19;5078098;28;20048;-77
2022/02/03 14:29:27;;;;;;;12.90;5.20;;;;;;;11.94;78.55;100088.22;5030777;28;20050;-76
2022/02/03 14:32:00;;;;;;;15.35;8.00;;;;;;;11.87;79.45;100079.44;5029993;28;20045;-78
2022/02/03 14:34:31;;;;;;;17.95;10.05;;;;;;;11.85;80.28;100070.59;5060384;28;20045;-77
2022/02/03 14:37:04;;;;;;;14.32;7.93;;;;;;;11.93;80.51;100073.25;5037281;28;20045;-77
2022/02/03 14:42:20;;;;;;;15.88;6.07;;;;;;;11.98;81.04;100068.81;5047554;28;20037;-76
2022/02/03 14:44:47;;;;;;;15.50;7.30;;;;;;;11.99;81.19;100078.53;5059173;28;20073;-75
2022/02/03 14:47:15;;;;;;;23.30;8.02;;;;;;;12.00;81.67;100068.81;5051228;28;20041;-77
2022/02/03 14:49:45;;;;;;;19.58;6.72;;;;;;;12.02;81.96;100082.91;5049870;28;20479;-80
2022/02/03 14:52:27;;;;;;;18.88;10.40;;;;;;;12.04;82.22;100086.44;5038310;28;20037;-79
2022/02/03 14:58:03;;;;;;;24.60;10.68;;;;;;;12.14;82.52;100085.56;5053513;28;20045;-77
2022/02/03 15:00:32;;;;;;;16.42;8.80;;;;;;;12.17;82.49;100082.88;5049042;28;20045;-77
2022/02/03 15:03:00;;;;;;;22.23;7.13;;;;;;;12.22;82.49;100091.69;5038451;28;20044;-77
2022/02/03 15:05:31;;;;;;;21.48;10.82;;;;;;;12.23;82.51;100088.16;5032762;28;20191;-77
2022/02/03 15:08:02;;;;;;;19.42;9.10;;;;;;;12.19;82.72;100097.00;5043036;28;20095;-76
2022/02/03 15:10:45;;;;;;;22.55;7.38;;;;;;;12.12;82.90;100100.56;5073975;28;20396;-76
2022/02/03 15:13:19;;;;;;;17.08;7.20;;;;;;;12.08;83.14;100098.81;5037725;28;20118;-79
2022/02/03 15:15:47;;;;;;;18.58;6.75;;;;;;;12.05;83.47;100097.03;5064116;28;20045;-78
2022/02/03 15:18:17;;;;;;;24.40;11.15;;;;;;;12.07;83.79;100105.84;5048821;28;20508;-79
2022/02/03 15:20:45;;;;;;;21.70;10.48;;;;;;;12.13;83.97;100102.31;5048947;28;20045;-78
2022/02/03 15:23:12;;;;;;;24.48;11.32;;;;;;;12.12;84.09;100100.56;5040448;28;20610;-79
2022/02/03 15:25:41;;;;;;;20.80;9.55;;;;;;;12.16;84.33;100112.88;5057581;28;20059;-77
2022/02/03 15:28:09;;;;;;;14.73;6.22;;;;;;;12.18;84.33;100103.19;5065011;28;20049;-77
2022/02/03 15:30:37;;;;;;;21.23;11.90;;;;;;;12.18;84.33;100098.78;5033392;28;20489;-77
2022/02/03 15:33:05;;;;;;;19.73;8.77;;;;;;;12.21;84.47;100105.81;5015930;28;20056;-77
2022/02/03 15:35:36;;;;;;;19.33;8.25;;;;;;;12.24;84.46;100113.75;5030029;28;20053;-77
2022/02/03 15:38:06;;;;;;;18.48;5.93;;;;;;;12.27;84.46;100111.13;5067403;28;20044;-76
2022/02/03 15:40:36;;;;;;;21.25;10.85;;;;;;;12.29;84.49;100114.63;5036420;28;20069;-77
2022/02/03 15:43:09;;;;;;;23.30;9.30;;;;;;;12.30;84.54;100126.97;5030770;28;20041;-77
2022/02/03 15:45:39;;;;;;;23.85;9.70;;;;;;;12.21;84.72;100124.31;5033947;28;20053;-77
2022/02/03 16:03:16;;;;;;;14.50;4.18;;;;;;;12.34;84.32;100139.31;5036000;28;20064;-78
2022/02/03 16:50:48;;;;;;;24.88;9.68;;;;;;;11.87;87.02;100219.59;4987276;28;20058;-76
2022/02/03 17:30:13;;;;;;;17.58;8.05;;;;;;;11.74;87.79;100281.25;4222006;28;20475;-77
2022/02/03 18:27:31;;;;;;;37.10;24.38;;;;;;;11.35;90.11;100421.13;5003802;28;20050;-77
2022/02/03 18:30:00;;;;;;;27.25;18.67;;;;;;;11.34;90.03;100420.25;4996205;28;20053;-78
2022/02/03 18:52:01;;;;;;;39.10;30.48;;;;;;;11.11;90.42;100467.59;4997862;28;20053;-75
2022/02/03 18:54:34;;;;;;;35.85;27.77;;;;;;;11.13;90.42;100467.63;5006583;28;20522;-76
2022/02/03 18:57:16;;;;;;;17.05;12.50;;;;;;;11.13;90.39;100459.69;4988047;28;20042;-76
2022/02/03 19:27:50;;;;;;;42.13;26.48;;;;;;;11.06;91.08;100523.91;4972463;28;20577;-76
2022/02/03 20:03:53;;;;;;;29.45;20.52;;;;;;;10.57;91.25;100564.72;4942260;28;20121;-78
2022/02/03 20:06:33;;;;;;;32.47;20.35;;;;;;;10.45;91.24;100577.75;4986630;28;20034;-77
2022/02/03 20:09:11;;;;;;;17.50;8.27;;;;;;;10.42;91.43;100578.63;5001589;28;20117;-76
2022/02/03 20:11:39;;;;;;;28.00;15.00;;;;;;;10.36;91.60;100573.28;4991668;28;20046;-77
2022/02/03 20:14:12;;;;;;;33.83;20.63;;;;;;;10.33;91.73;100571.47;5004929;28;20041;-76
2022/02/03 20:16:40;;;;;;;27.77;16.52;;;;;;;10.34;91.98;100567.97;5026224;28;20052;-76
2022/02/03 20:19:08;;;;;;;28.38;15.48;;;;;;;10.42;92.71;100554.88;4976758;28;20038;-77
2022/02/03 20:21:38;;;;;;;42.47;19.38;;;;;;;10.53;92.87;100563.81;4971745;28;20600;-75
2022/02/03 20:24:09;;;;;;;32.17;16.05;;;;;;;10.63;93.07;100572.75;4969998;28;20053;-78
2022/02/03 20:26:38;;;;;;;51.42;35.30;;;;;;;10.68;93.05;100557.84;5005757;28;20049;-77
2022/02/03 20:29:07;;;;;;;30.10;21.48;;;;;;;10.67;93.01;100570.16;4988696;28;20052;-77
2022/02/03 20:31:35;;;;;;;34.88;19.77;;;;;;;10.67;92.96;100574.53;4987532;28;20089;-78
2022/02/03 20:34:03;;;;;;;44.45;27.10;;;;;;;10.71;93.00;100587.78;4988411;28;20534;-77
2022/02/03 20:36:31;;;;;;;23.27;12.55;;;;;;;10.75;92.85;100580.81;4992920;28;20037;-78
2022/02/03 20:38:58;;;;;;;33.30;13.25;;;;;;;10.78;92.94;100587.00;5010138;28;20045;-78
2022/02/03 20:41:29;;;;;;;20.63;10.38;;;;;;;10.81;92.90;100591.44;4994787;28;20119;-77
2022/02/03 20:43:56;;;;;;;24.13;12.27;;;;;;;10.82;92.88;100587.03;4991873;28;20128;-76
2022/02/03 20:46:25;;;;;;;26.20;14.23;;;;;;;10.83;92.85;100586.19;4993810;28;20052;-77
2022/02/03 20:49:23;;;;;;;21.75;12.70;;;;;;;10.84;92.65;100588.81;5045786;27;20448;-76
2022/02/03 20:51:50;;;;;;;22.55;11.50;;;;;;;10.82;92.38;100587.94;5052512;28;20101;-76
2022/02/03 20:54:18;;;;;;;23.92;11.77;;;;;;;10.79;92.15;100590.53;5042496;28;20045;-76
2022/02/03 20:56:47;;;;;;;15.10;4.47;;;;;;;10.82;92.29;100608.16;5043552;28;20136;-78
2022/02/03 20:59:15;;;;;;;27.08;11.55;;;;;;;10.83;92.20;100599.38;5059603;28;20068;-76
2022/02/03 21:01:49;;;;;;;19.63;8.27;;;;;;;10.82;91.99;100590.56;5058434;28;20045;-76
2022/02/03 21:04:30;;;;;;;19.65;7.10;;;;;;;10.80;91.85;100605.50;5041663;28;20042;-77
2022/02/03 21:06:59;;;;;;;13.52;4.28;;;;;;;10.79;91.66;100607.25;5039987;28;20130;-77
2022/02/03 21:09:26;;;;;;;17.33;6.07;;;;;;;10.77;91.57;100602.81;5041448;28;20072;-76
2022/02/03 21:11:54;;;;;;;18.25;5.45;;;;;;;10.77;91.45;100616.00;5045352;28;20041;-76
2022/02/03 21:14:22;;;;;;;20.60;4.50;;;;;;;10.79;91.53;100619.56;5043632;28;20052;-76
2022/02/03 21:16:52;;;;;;;22.90;8.32;;;;;;;10.81;91.64;100620.47;5054637;28;20520;-76
2022/02/03 21:19:21;;;;;;;27.23;9.65;;;;;;;10.81;91.44;100632.78;5079823;28;20045;-77
2022/02/03 21:21:49;;;;;;;19.25;4.55;;;;;;;10.82;91.48;100634.56;5049583;28;20049;-75
2022/02/03 21:24:18;;;;;;;13.55;4.65;;;;;;;10.83;91.41;100631.06;5046526;28;20053;-76
2022/02/03 21:26:45;;;;;;;13.60;6.50;;;;;;;10.82;91.36;100624.00;5044569;28;20746;-76
2022/02/03 21:29:13;;;;;;;16.60;4.43;;;;;;;10.83;91.30;100631.06;5032702;28;20040;-76
2022/02/03 21:31:41;;;;;;;10.40;4.05;;;;;;;10.80;91.16;100618.69;5063300;28;20407;-75
2022/02/03 21:34:14;;;;;;;11.65;4.80;;;;;;;10.77;90.86;100627.47;5069742;28;20052;-76
2022/02/03 21:36:43;;;;;;;15.30;3.70;;;;;;;10.75;90.58;100638.88;5078341;28;20521;-78
2022/02/03 21:39:11;;;;;;;13.40;4.95;;;;;;;10.75;90.38;100638.88;5069231;28;20049;-78
2022/02/03 21:41:41;;;;;;;11.95;4.47;;;;;;;10.77;90.25;100639.75;5080167;28;20041;-77
2022/02/03 21:44:12;;;;;;;15.27;3.45;;;;;;;10.75;90.28;100639.78;5067322;28;20045;-76
2022/02/03 21:46:40;;;;;;;17.63;6.45;;;;;;;10.77;90.00;100647.69;5052128;28;20056;-76
2022/02/03 21:49:07;;;;;;;12.00;5.05;;;;;;;10.78;89.95;100638.91;5061035;28;20132;-76
2022/02/03 21:51:41;;;;;;;14.00;5.32;;;;;;;10.79;89.94;100654.78;5062783;28;20040;-77
2022/02/03 21:54:10;;;;;;;15.27;4.00;;;;;;;10.78;89.67;100655.63;5063887;28;20405;-77
2022/02/03 21:56:41;;;;;;;11.82;5.25;;;;;;;10.79;89.82;100649.50;5069282;28;20575;-77
2022/02/03 21:59:09;;;;;;;14.27;4.85;;;;;;;10.78;89.63;100667.94;5057368;28;20052;-76
2022/02/03 22:01:40;;;;;;;10.65;3.17;;;;;;;10.76;89.68;100660.00;5050618;28;20051;-76
2022/02/03 22:04:08;;;;;;;10.23;4.05;;;;;;;10.78;89.52;100673.22;5065185;28;20499;-76
2022/02/03 22:06:36;;;;;;;17.73;5.38;;;;;;;10.78;89.37;100671.47;5034237;28;20166;-76
2022/02/03 22:09:04;;;;;;;16.45;7.07;;;;;;;10.82;89.45;100679.47;5077023;28;20041;-76
2022/02/03 22:11:31;;;;;;;13.30;5.28;;;;;;;10.83;89.46;100683.88;5049532;28;20479;-76
2022/02/03 22:14:01;;;;;;;14.25;3.65;;;;;;;10.79;89.00;100683.81;5047581;28;20447;-76
2022/02/03 22:16:31;;;;;;;8.55;3.47;;;;;;;10.77;88.85;100663.53;5057562;28;20048;-76